Terminal Aerodrome Forecast
Issued by NWS

Current Version | Previous Version | Text Only | Print | Product List | Glossary On
Versions: 1 2 3 4 5 6 7 8 9 10 11 12 13 14
000
FTUS41 KLWX 011100
TAFMTN
TAF
KMTN 011131Z 0112/0212 VRB03KT P6SM BKN060
     FM011800 21006KT P6SM VCTS BKN050CB
     FM020000 VRB03KT P6SM BKN050
     FM020300 18004KT P6SM SCT050
     FM020500 00000KT P6SM FEW050=

USA.gov is the U.S. government's official web portal to all federal, state and local government web resources and services.